Time;durP1;ratioP1;P1;durP2;ratioP2;P2;SDS_P1;SDS_P2;PMS_P1;PMS_P2;Temp;Humidity;BMP_temperature;BMP_pressure;BME280_temperature;BME280_humidity;BME280_pressure;Samples;Min_cycle;Max_cycle;Signal;HPM_P1;HPM_P2
2022/09/12 00:02:25;;;;;;;8.63;7.93;;;13.30;99.90;;;;;;5042703;28;20106;-49
2022/09/12 00:04:51;;;;;;;9.77;9.00;;;13.30;99.90;;;;;;5041340;28;20188;-47
2022/09/12 00:07:16;;;;;;;10.48;9.68;;;13.30;99.90;;;;;;5041555;28;20502;-48
2022/09/12 00:09:42;;;;;;;10.60;9.70;;;13.30;99.90;;;;;;5040264;28;20170;-48
2022/09/12 00:12:13;;;;;;;9.65;8.93;;;13.30;99.90;;;;;;5041186;28;20041;-48
2022/09/12 00:14:38;;;;;;;9.63;8.85;;;13.30;99.90;;;;;;5040015;28;20709;-48
2022/09/12 00:17:12;;;;;;;10.93;9.98;;;13.30;99.90;;;;;;5041051;28;20053;-47
2022/09/12 00:19:38;;;;;;;11.23;10.32;;;13.40;99.90;;;;;;5040543;28;20067;-47
2022/09/12 00:22:03;;;;;;;10.82;9.82;;;13.40;99.90;;;;;;5041324;28;20069;-48
2022/09/12 00:24:29;;;;;;;10.73;9.82;;;13.40;99.90;;;;;;5040683;28;20055;-48
2022/09/12 00:26:55;;;;;;;11.05;10.15;;;13.40;99.90;;;;;;5022060;28;20515;-50
2022/09/12 00:29:21;;;;;;;11.80;10.80;;;13.40;99.90;;;;;;5039650;28;20181;-49
2022/09/12 00:31:47;;;;;;;11.95;10.82;;;13.50;99.90;;;;;;5045122;28;20045;-48
2022/09/12 00:34:13;;;;;;;9.77;8.93;;;13.40;99.90;;;;;;5044832;28;20051;-48
2022/09/12 00:36:39;;;;;;;9.90;9.05;;;13.40;99.90;;;;;;5044967;28;20041;-47
2022/09/12 00:39:06;;;;;;;10.23;9.43;;;13.40;99.90;;;;;;5045205;28;20107;-47
2022/09/12 00:41:41;;;;;;;11.80;10.80;;;13.30;99.90;;;;;;5045312;28;20561;-47
2022/09/12 00:44:09;;;;;;;10.75;9.85;;;13.30;99.90;;;;;;5025345;28;20118;-47
2022/09/12 00:47:04;;;;;;;9.77;8.88;;;13.20;99.90;;;;;;5044019;28;20053;-48
2022/09/12 00:49:48;;;;;;;9.30;8.50;;;13.20;99.90;;;;;;4962694;28;20441;-48
2022/09/12 00:52:31;;;;;;;6.60;6.10;;;13.20;99.90;;;;;;4947802;28;20046;-53
2022/09/12 00:55:11;;;;;;;7.63;7.03;;;13.10;99.90;;;;;;4963072;28;20133;-47
2022/09/12 00:57:46;;;;;;;8.93;8.18;;;13.10;99.90;;;;;;4963394;28;20125;-47
2022/09/12 01:00:19;;;;;;;11.15;10.23;;;13.10;99.90;;;;;;4964062;28;20094;-48
2022/09/12 01:03:00;;;;;;;8.88;8.07;;;13.10;99.90;;;;;;4947884;28;20059;-48
2022/09/12 01:05:28;;;;;;;9.02;8.23;;;13.10;99.90;;;;;;4962975;28;20054;-48
2022/09/12 01:07:55;;;;;;;8.80;8.10;;;13.10;99.90;;;;;;4962325;28;20113;-47
2022/09/12 01:10:22;;;;;;;9.77;8.95;;;13.10;99.90;;;;;;4962252;28;20050;-50
2022/09/12 01:12:49;;;;;;;9.57;8.77;;;13.10;99.90;;;;;;4964278;28;20090;-48
2022/09/12 01:15:14;;;;;;;8.75;7.95;;;13.10;99.90;;;;;;4966475;28;20059;-49
2022/09/12 01:17:55;;;;;;;9.95;9.18;;;13.10;99.90;;;;;;4963653;28;20399;-47
2022/09/12 01:21:03;;;;;;;8.80;8.00;;;13.10;99.90;;;;;;4963186;28;20121;-47
2022/09/12 01:23:43;;;;;;;9.93;9.15;;;13.00;99.90;;;;;;4924332;29;20055;-48
2022/09/12 01:26:52;;;;;;;9.32;8.60;;;13.10;99.90;;;;;;4928737;28;20521;-47
2022/09/12 01:29:31;;;;;;;8.80;8.00;;;13.10;99.90;;;;;;4980621;28;20085;-47
2022/09/12 01:32:18;;;;;;;9.25;8.55;;;13.00;99.90;;;;;;4974091;28;20058;-48
2022/09/12 01:35:10;;;;;;;9.90;9.00;;;13.00;99.90;;;;;;4981749;28;20051;-48
2022/09/12 01:38:03;;;;;;;8.85;8.10;;;13.00;99.90;;;;;;4981306;28;20112;-48
2022/09/12 01:40:50;;;;;;;9.23;8.32;;;12.90;99.90;;;;;;4981528;28;20110;-47
2022/09/12 01:43:31;;;;;;;9.90;8.90;;;12.90;99.90;;;;;;4980629;28;20062;-47
2022/09/12 01:46:06;;;;;;;10.13;9.05;;;12.90;99.90;;;;;;4981284;28;20160;-47
2022/09/12 01:48:41;;;;;;;10.50;9.68;;;12.90;99.90;;;;;;4980778;28;20058;-47
2022/09/12 01:51:22;;;;;;;11.45;10.25;;;12.80;99.90;;;;;;4981070;28;20062;-49
2022/09/12 01:53:57;;;;;;;9.63;8.80;;;12.80;99.90;;;;;;4981221;28;20050;-50
2022/09/12 01:56:29;;;;;;;10.82;9.85;;;12.80;99.90;;;;;;4986110;28;20089;-47
2022/09/12 01:59:04;;;;;;;10.60;9.80;;;12.80;99.90;;;;;;5043234;28;20049;-47
2022/09/12 02:01:46;;;;;;;10.05;9.13;;;12.80;99.90;;;;;;5043934;28;20071;-47
2022/09/12 02:04:16;;;;;;;10.55;9.57;;;12.80;99.90;;;;;;5043699;28;20479;-47
2022/09/12 02:07:05;;;;;;;10.65;9.65;;;12.80;99.90;;;;;;5042925;28;20053;-47
2022/09/12 02:09:37;;;;;;;13.32;12.13;;;12.80;99.90;;;;;;5024984;28;20088;-47
2022/09/12 02:12:06;;;;;;;11.57;10.57;;;12.80;99.90;;;;;;5043852;28;20048;-47
2022/09/12 02:14:40;;;;;;;15.25;13.95;;;12.80;99.90;;;;;;5043528;28;20405;-49
2022/09/12 02:17:11;;;;;;;13.13;11.93;;;12.80;99.90;;;;;;5043491;28;20045;-47
2022/09/12 02:19:43;;;;;;;13.25;11.95;;;12.80;99.90;;;;;;5025580;28;20638;-47
2022/09/12 02:22:13;;;;;;;13.17;11.97;;;12.80;99.90;;;;;;5043075;28;20514;-47
2022/09/12 02:24:43;;;;;;;13.65;12.38;;;12.80;99.90;;;;;;5044424;28;20194;-47
2022/09/12 02:27:14;;;;;;;14.95;12.95;;;12.80;99.90;;;;;;5043502;28;20060;-48
2022/09/12 02:29:41;;;;;;;15.77;14.38;;;12.80;99.90;;;;;;5045832;28;20051;-48
2022/09/12 02:32:16;;;;;;;15.77;14.43;;;12.90;99.90;;;;;;5043757;28;20047;-50
2022/09/12 02:35:06;;;;;;;15.75;14.43;;;12.90;99.90;;;;;;5043101;28;20393;-49
2022/09/12 02:37:49;;;;;;;17.58;15.77;;;12.90;99.90;;;;;;5042433;28;20751;-47
2022/09/12 02:40:15;;;;;;;15.93;14.57;;;12.90;99.90;;;;;;5043060;28;20047;-47
2022/09/12 02:42:46;;;;;;;17.95;16.25;;;12.90;99.90;;;;;;5024648;28;20056;-47
2022/09/12 02:45:12;;;;;;;17.55;15.93;;;12.90;99.90;;;;;;5043416;28;20128;-47
2022/09/12 02:47:49;;;;;;;19.88;18.05;;;12.80;99.90;;;;;;5041497;28;20052;-47
2022/09/12 02:50:15;;;;;;;23.55;21.33;;;12.90;99.90;;;;;;5028743;28;20405;-48
2022/09/12 02:52:42;;;;;;;23.00;20.80;;;12.90;99.90;;;;;;5043159;28;20155;-47
2022/09/12 02:55:12;;;;;;;24.27;22.00;;;12.90;99.90;;;;;;5042633;28;20671;-47
2022/09/12 02:57:38;;;;;;;27.23;24.63;;;12.90;99.90;;;;;;5042052;28;20044;-47
2022/09/12 03:00:06;;;;;;;25.33;22.85;;;12.90;99.90;;;;;;5042983;28;20602;-46
2022/09/12 03:02:52;;;;;;;25.88;23.25;;;12.90;99.90;;;;;;5043207;28;20119;-49
2022/09/12 03:05:50;;;;;;;28.08;25.17;;;13.00;99.90;;;;;;5041543;28;20084;-49
2022/09/12 03:08:46;;;;;;;27.45;24.73;;;12.90;99.90;;;;;;4959727;28;20058;-48
2022/09/12 03:11:18;;;;;;;29.10;26.10;;;12.90;99.90;;;;;;4960173;28;20062;-46
2022/09/12 03:14:19;;;;;;;28.25;25.52;;;13.00;99.90;;;;;;4959987;28;20513;-49
2022/09/12 03:16:55;;;;;;;26.75;24.15;;;12.90;99.90;;;;;;4960916;28;20410;-47
2022/09/12 03:19:32;;;;;;;29.65;26.70;;;13.00;99.90;;;;;;4960600;28;20057;-48
2022/09/12 03:22:16;;;;;;;28.60;25.88;;;12.90;99.90;;;;;;4961028;28;20058;-47
2022/09/12 03:25:04;;;;;;;27.65;24.88;;;12.90;99.90;;;;;;4959904;28;20050;-47
2022/09/12 03:27:35;;;;;;;28.17;25.35;;;12.90;99.90;;;;;;4959678;28;20057;-47
2022/09/12 03:30:04;;;;;;;29.55;26.55;;;12.80;99.90;;;;;;4960042;28;20178;-48
2022/09/12 03:32:44;;;;;;;29.95;27.00;;;12.80;99.90;;;;;;4961270;28;20055;-47
2022/09/12 03:35:11;;;;;;;29.75;26.85;;;12.90;99.90;;;;;;4960735;28;20047;-47
2022/09/12 03:37:37;;;;;;;29.83;26.95;;;12.90;99.90;;;;;;4960956;28;20109;-47
2022/09/12 03:40:05;;;;;;;30.88;27.98;;;12.90;99.90;;;;;;4961171;28;20167;-47
2022/09/12 03:42:30;;;;;;;31.60;28.40;;;12.90;99.90;;;;;;4961666;28;20113;-47
2022/09/12 03:44:56;;;;;;;32.75;29.25;;;12.90;99.90;;;;;;5038163;28;20524;-48
2022/09/12 03:47:22;;;;;;;31.05;28.00;;;12.80;99.90;;;;;;5042020;28;20436;-47
2022/09/12 03:49:48;;;;;;;31.00;28.02;;;12.80;99.90;;;;;;5022964;28;20080;-50
2022/09/12 03:52:17;;;;;;;30.67;27.40;;;12.90;99.90;;;;;;5042282;28;20087;-47
2022/09/12 03:54:42;;;;;;;31.08;28.13;;;12.80;99.90;;;;;;5036643;28;20470;-47
2022/09/12 03:57:09;;;;;;;32.13;29.00;;;12.80;99.90;;;;;;5039589;28;20566;-47
2022/09/12 03:59:34;;;;;;;32.15;28.98;;;12.80;99.90;;;;;;5041380;28;20045;-47
2022/09/12 04:02:00;;;;;;;31.13;28.13;;;12.80;99.90;;;;;;5041361;28;20041;-47
2022/09/12 04:04:26;;;;;;;31.13;28.02;;;12.80;99.90;;;;;;5040808;28;20246;-48
2022/09/12 04:06:52;;;;;;;31.08;27.98;;;12.80;99.90;;;;;;5022060;28;20060;-47
2022/09/12 04:09:17;;;;;;;31.50;28.48;;;12.80;99.90;;;;;;5040566;28;20040;-46
2022/09/12 04:11:43;;;;;;;29.63;26.60;;;12.80;99.90;;;;;;5023509;28;20148;-49
2022/09/12 04:14:09;;;;;;;31.95;28.65;;;12.90;99.90;;;;;;5040692;28;20037;-49
2022/09/12 04:16:35;;;;;;;31.25;28.08;;;12.90;99.90;;;;;;5040962;28;20040;-47
2022/09/12 04:19:00;;;;;;;32.13;29.13;;;12.90;99.90;;;;;;5022977;28;20053;-48
2022/09/12 04:21:26;;;;;;;32.28;29.02;;;13.00;99.90;;;;;;5040508;28;20049;-47
2022/09/12 04:23:52;;;;;;;35.03;31.42;;;13.00;99.90;;;;;;5040557;28;20053;-47
2022/09/12 04:26:19;;;;;;;33.40;30.20;;;13.00;99.90;;;;;;5040447;28;20049;-47
2022/09/12 04:28:45;;;;;;;35.53;32.03;;;13.10;99.90;;;;;;5040070;28;20052;-48
2022/09/12 04:31:17;;;;;;;35.45;31.98;;;13.10;99.90;;;;;;5022180;28;20044;-47
2022/09/12 04:33:46;;;;;;;35.03;31.52;;;13.20;99.90;;;;;;5041280;28;20057;-48
2022/09/12 04:36:15;;;;;;;35.35;31.83;;;13.20;99.90;;;;;;5041031;28;20569;-47
2022/09/12 04:38:46;;;;;;;36.63;32.97;;;13.20;99.90;;;;;;5041315;28;20041;-49
2022/09/12 04:41:17;;;;;;;37.13;33.33;;;13.20;99.90;;;;;;5039345;28;20045;-53
2022/09/12 04:43:47;;;;;;;35.28;31.80;;;13.20;99.90;;;;;;5040695;28;20737;-47
2022/09/12 04:46:15;;;;;;;37.45;33.72;;;13.20;99.90;;;;;;5040821;28;20044;-48
2022/09/12 04:48:42;;;;;;;38.97;34.97;;;13.30;99.90;;;;;;5040433;28;20120;-48
2022/09/12 04:51:19;;;;;;;38.53;34.53;;;13.30;99.90;;;;;;5037946;28;20041;-47
2022/09/12 04:53:51;;;;;;;37.55;33.85;;;13.20;99.90;;;;;;5041169;28;20056;-47
2022/09/12 04:56:18;;;;;;;38.40;34.50;;;13.30;99.90;;;;;;5042473;28;20049;-47
2022/09/12 04:58:45;;;;;;;38.97;34.78;;;13.30;99.90;;;;;;5044039;28;20048;-48
2022/09/12 05:01:13;;;;;;;38.50;34.60;;;13.40;99.90;;;;;;5041150;28;20060;-47
2022/09/12 05:03:42;;;;;;;38.33;34.22;;;13.40;99.90;;;;;;5040595;28;20100;-48
2022/09/12 05:06:11;;;;;;;39.53;35.22;;;13.50;99.90;;;;;;5040293;28;20044;-46
2022/09/12 05:08:37;;;;;;;39.67;35.65;;;13.50;99.90;;;;;;5039909;28;20045;-47
2022/09/12 05:11:07;;;;;;;38.85;34.90;;;13.60;99.90;;;;;;5040864;28;20048;-47
2022/09/12 05:13:33;;;;;;;42.92;38.22;;;13.60;99.90;;;;;;5040879;28;20049;-47
2022/09/12 05:16:01;;;;;;;43.28;37.25;;;13.70;99.90;;;;;;5041786;28;20087;-47
2022/09/12 05:18:27;;;;;;;42.13;37.53;;;13.70;99.90;;;;;;5044148;28;20063;-48
2022/09/12 05:20:54;;;;;;;40.42;36.35;;;13.70;99.90;;;;;;5045045;28;20500;-47
2022/09/12 05:23:20;;;;;;;42.55;37.88;;;13.80;99.90;;;;;;5043050;28;20519;-50
2022/09/12 05:25:55;;;;;;;41.85;37.55;;;13.80;99.90;;;;;;5044658;28;20127;-47
2022/09/12 05:28:21;;;;;;;39.42;35.28;;;13.80;99.90;;;;;;5043036;28;20574;-46
2022/09/12 05:30:47;;;;;;;44.22;38.70;;;13.90;99.90;;;;;;5044593;28;20408;-47
2022/09/12 05:33:13;;;;;;;42.25;36.83;;;14.00;99.90;;;;;;5044160;28;20490;-47
2022/09/12 05:35:39;;;;;;;42.55;37.10;;;14.00;99.90;;;;;;5044312;28;20048;-47
2022/09/12 05:38:11;;;;;;;41.63;37.30;;;14.00;99.90;;;;;;5047890;28;20049;-48
2022/09/12 05:40:36;;;;;;;42.33;37.85;;;14.00;99.90;;;;;;5042941;28;20098;-47
2022/09/12 05:43:03;;;;;;;40.72;36.53;;;14.00;99.90;;;;;;5042956;28;20045;-47
2022/09/12 05:45:29;;;;;;;42.13;37.25;;;14.00;99.90;;;;;;5039302;28;20048;-48
2022/09/12 05:47:54;;;;;;;42.42;37.90;;;14.00;99.90;;;;;;5043283;28;20045;-47
2022/09/12 05:50:20;;;;;;;42.40;37.97;;;14.00;99.90;;;;;;5040359;28;20431;-47
2022/09/12 05:52:46;;;;;;;44.60;39.83;;;14.10;99.90;;;;;;5043415;28;20065;-48
2022/09/12 05:55:12;;;;;;;44.67;39.83;;;14.10;99.90;;;;;;5043933;28;20124;-48
2022/09/12 05:57:38;;;;;;;44.47;39.72;;;14.10;99.90;;;;;;5043244;28;20206;-47
2022/09/12 06:00:05;;;;;;;47.17;41.83;;;14.20;99.90;;;;;;5044210;28;20048;-47
2022/09/12 06:02:30;;;;;;;47.70;40.97;;;14.20;99.90;;;;;;5026447;28;20098;-47
2022/09/12 06:04:56;;;;;;;47.38;41.72;;;14.20;99.90;;;;;;5044327;28;20049;-47
2022/09/12 06:07:22;;;;;;;44.65;39.88;;;14.20;99.90;;;;;;5024974;28;20053;-47
2022/09/12 06:09:48;;;;;;;48.40;42.78;;;14.30;99.90;;;;;;5044599;28;20131;-47
2022/09/12 06:12:13;;;;;;;48.00;42.10;;;14.30;99.90;;;;;;5047763;28;20055;-48
2022/09/12 06:14:39;;;;;;;48.45;43.17;;;14.40;99.90;;;;;;5026423;28;20049;-49
2022/09/12 06:17:05;;;;;;;47.42;42.28;;;14.40;99.90;;;;;;5043694;28;20052;-51
2022/09/12 06:19:30;;;;;;;50.80;43.78;;;14.40;99.90;;;;;;5043305;28;20484;-47
2022/09/12 06:21:56;;;;;;;52.45;43.85;;;14.40;99.90;;;;;;5043614;28;20142;-47
2022/09/12 06:24:22;;;;;;;54.95;45.00;;;14.50;99.90;;;;;;5043229;28;20401;-47
2022/09/12 06:26:51;;;;;;;49.50;42.83;;;14.50;99.90;;;;;;5042867;28;20051;-48
2022/09/12 06:29:18;;;;;;;54.67;45.63;;;14.50;99.90;;;;;;5041162;28;20050;-49
2022/09/12 06:31:44;;;;;;;58.15;47.63;;;14.60;99.90;;;;;;5043357;28;20060;-47
2022/09/12 06:34:12;;;;;;;58.00;46.55;;;14.60;99.90;;;;;;5043629;28;20172;-47
2022/09/12 06:36:41;;;;;;;59.22;48.65;;;14.70;99.90;;;;;;5042678;28;20056;-47
2022/09/12 06:39:10;;;;;;;56.83;49.38;;;14.70;99.90;;;;;;5042381;28;20053;-48
2022/09/12 06:41:36;;;;;;;58.42;47.83;;;14.80;99.90;;;;;;5043378;28;20049;-47
2022/09/12 06:44:03;;;;;;;55.92;46.95;;;14.80;99.90;;;;;;5024733;28;20060;-46
2022/09/12 06:46:30;;;;;;;57.25;47.70;;;14.90;99.90;;;;;;5042526;28;20041;-46
2022/09/12 06:48:57;;;;;;;56.97;47.65;;;15.00;99.90;;;;;;5023548;28;20486;-46
2022/09/12 06:51:23;;;;;;;59.58;49.60;;;15.00;99.90;;;;;;5041735;28;20052;-47
2022/09/12 06:53:56;;;;;;;61.08;49.47;;;15.10;99.90;;;;;;5042368;28;20053;-47
2022/09/12 06:56:25;;;;;;;60.42;48.80;;;15.10;99.90;;;;;;5042924;28;20416;-46
2022/09/12 06:58:52;;;;;;;59.83;47.92;;;15.20;99.90;;;;;;5041916;28;20045;-47
2022/09/12 07:01:20;;;;;;;58.53;49.42;;;15.10;99.90;;;;;;5042626;28;20507;-48
2022/09/12 07:03:52;;;;;;;56.65;46.88;;;15.20;99.90;;;;;;5042245;28;20131;-47
2022/09/12 07:06:23;;;;;;;61.65;49.17;;;15.20;99.90;;;;;;5041390;28;20514;-48
2022/09/12 07:08:48;;;;;;;59.67;47.85;;;15.20;99.90;;;;;;5041012;28;20041;-46
2022/09/12 07:11:17;;;;;;;57.10;48.10;;;15.30;99.90;;;;;;5041911;28;20377;-47
2022/09/12 07:13:44;;;;;;;57.78;48.63;;;15.30;99.90;;;;;;5042467;28;20086;-46
2022/09/12 07:16:11;;;;;;;58.90;48.72;;;15.30;99.90;;;;;;5042920;28;20033;-47
2022/09/12 07:18:38;;;;;;;62.65;47.88;;;15.30;99.90;;;;;;5041758;28;20052;-47
2022/09/12 07:21:06;;;;;;;60.13;48.63;;;15.30;99.90;;;;;;5041971;28;20134;-47
2022/09/12 07:23:32;;;;;;;61.45;48.10;;;15.40;99.90;;;;;;5042652;28;20053;-47
2022/09/12 07:25:59;;;;;;;61.03;48.40;;;15.50;99.90;;;;;;5046393;28;20037;-47
2022/09/12 07:28:33;;;;;;;60.88;50.17;;;15.50;99.90;;;;;;5041389;28;20514;-47
2022/09/12 07:31:06;;;;;;;56.67;48.65;;;15.50;99.90;;;;;;5038494;28;20127;-48
2022/09/12 07:33:31;;;;;;;;;;;15.60;99.90;;;;;;5024132;28;20048;-47
2022/09/12 07:36:05;;;;;;;62.92;51.00;;;15.70;99.90;;;;;;5042404;28;20455;-47
2022/09/12 07:38:31;;;;;;;62.22;49.58;;;15.70;99.90;;;;;;5041430;28;20059;-48
2022/09/12 07:40:57;;;;;;;65.50;52.65;;;15.80;99.90;;;;;;5040531;28;20044;-47
2022/09/12 07:43:23;;;;;;;59.83;49.78;;;15.80;99.90;;;;;;5041083;28;20052;-49
2022/09/12 07:45:58;;;;;;;63.03;51.40;;;15.90;99.90;;;;;;5041688;28;20084;-47
2022/09/12 07:48:24;;;;;;;64.13;50.60;;;16.00;99.90;;;;;;5040599;28;20036;-48
2022/09/12 07:51:00;;;;;;;63.33;51.63;;;16.10;99.90;;;;;;5039899;28;20492;-47
2022/09/12 07:53:31;;;;;;;65.55;53.67;;;16.20;99.90;;;;;;5040867;28;20053;-47
2022/09/12 07:55:56;;;;;;;63.85;53.20;;;16.40;99.90;;;;;;5041728;28;20479;-48
2022/09/12 07:58:23;;;;;;;63.47;52.53;;;16.40;99.90;;;;;;5041199;28;20055;-48
2022/09/12 08:00:49;;;;;;;62.45;52.42;;;16.50;99.90;;;;;;5040944;28;20379;-48
2022/09/12 08:03:16;;;;;;;58.75;51.45;;;16.70;99.90;;;;;;5022271;28;20069;-47
2022/09/12 08:05:42;;;;;;;60.33;52.03;;;16.90;99.90;;;;;;5042022;28;20098;-47
2022/09/12 08:08:08;;;;;;;59.88;53.35;;;17.00;99.90;;;;;;5040918;28;20451;-47
2022/09/12 08:10:34;;;;;;;60.13;52.88;;;17.10;99.90;;;;;;5040440;28;20045;-47
2022/09/12 08:13:00;;;;;;;63.53;53.65;;;17.30;99.90;;;;;;5040593;28;20048;-48
2022/09/12 08:15:25;;;;;;;68.03;54.58;;;17.30;99.90;;;;;;5041407;28;20049;-47
2022/09/12 08:17:51;;;;;;;62.45;54.78;;;17.50;99.90;;;;;;5040516;28;20048;-49
2022/09/12 08:20:17;;;;;;;65.45;53.42;;;17.40;99.90;;;;;;5039667;28;20155;-50
2022/09/12 08:22:43;;;;;;;67.45;56.85;;;17.60;99.90;;;;;;5040340;28;20080;-48
2022/09/12 08:25:09;;;;;;;64.90;52.17;;;17.60;99.90;;;;;;5021733;28;20144;-47
2022/09/12 08:27:36;;;;;;;63.65;55.35;;;17.80;99.90;;;;;;5038012;28;20084;-48
2022/09/12 08:30:04;;;;;;;72.05;58.63;;;17.90;99.90;;;;;;5038054;28;20045;-48
2022/09/12 08:32:29;;;;;;;69.30;59.28;;;18.10;99.90;;;;;;5038878;28;20423;-48
2022/09/12 08:34:55;;;;;;;66.22;56.13;;;18.20;99.90;;;;;;5041192;28;20062;-48
2022/09/12 08:37:21;;;;;;;71.45;58.20;;;18.30;99.90;;;;;;5040363;28;20511;-48
2022/09/12 08:39:51;;;;;;;72.53;58.20;;;18.30;99.90;;;;;;5042333;28;20048;-51
2022/09/12 08:42:44;;;;;;;68.15;57.28;;;18.40;99.90;;;;;;5040931;28;20068;-48
2022/09/12 08:45:19;;;;;;;75.75;59.95;;;18.60;99.90;;;;;;5040240;28;20056;-50
2022/09/12 08:47:46;;;;;;;70.82;56.80;;;18.70;99.90;;;;;;5038933;28;20118;-49
2022/09/12 08:50:19;;;;;;;74.07;58.20;;;18.80;99.90;;;;;;5040129;28;20126;-48
2022/09/12 08:53:03;;;;;;;;;;;18.90;99.90;;;;;;5042925;28;20111;-48
2022/09/12 08:55:40;;;;;;;69.65;55.88;;;19.00;99.90;;;;;;5043346;28;20022;-49
2022/09/12 08:58:26;;;;;;;69.43;55.25;;;19.10;99.90;;;;;;5041804;28;20568;-48
2022/09/12 09:01:17;;;;;;;68.22;54.55;;;19.40;99.90;;;;;;5042164;28;20496;-52
2022/09/12 09:03:59;;;;;;;69.47;53.60;;;19.50;99.90;;;;;;5043789;28;20392;-48
2022/09/12 09:07:06;;;;;;;64.75;51.85;;;19.60;99.90;;;;;;5009096;28;20061;-48
2022/09/12 09:09:44;;;;;;;63.15;49.25;;;19.60;99.90;;;;;;5043113;28;20580;-48
2022/09/12 09:12:33;;;;;;;62.10;50.53;;;19.70;99.90;;;;;;5043497;28;20142;-50
2022/09/12 09:15:20;;;;;;;67.22;51.90;;;19.80;99.90;;;;;;5043324;28;20044;-48
2022/09/12 09:17:50;;;;;;;61.10;51.17;;;19.90;99.90;;;;;;5043467;28;20534;-50
2022/09/12 09:20:22;;;;;;;64.00;49.85;;;19.90;99.90;;;;;;5042882;28;20466;-48
2022/09/12 09:23:34;;;;;;;55.17;47.07;;;20.10;99.90;;;;;;5044450;28;20094;-49
2022/09/12 09:26:36;;;;;;;59.50;48.38;;;20.20;99.90;;;;;;4942875;28;20054;-48
2022/09/12 09:29:10;;;;;;;56.88;46.28;;;20.40;99.90;;;;;;4896576;29;20067;-48
2022/09/12 09:31:38;;;;;;;53.85;45.85;;;20.40;99.90;;;;;;4904782;29;20056;-48
2022/09/12 09:34:18;;;;;;;55.03;44.65;;;20.20;99.90;;;;;;4904996;29;20056;-50
2022/09/12 09:36:46;;;;;;;53.90;43.70;;;20.20;99.90;;;;;;4905328;29;20144;-50
2022/09/12 09:39:21;;;;;;;50.10;44.45;;;20.30;99.90;;;;;;4904805;29;20138;-48
2022/09/12 09:42:19;;;;;;;53.28;43.53;;;20.30;99.90;;;;;;4908307;29;20063;-50
2022/09/12 09:44:47;;;;;;;50.22;41.25;;;20.40;99.90;;;;;;4890769;29;20947;-48
2022/09/12 09:47:13;;;;;;;45.45;39.38;;;20.60;99.90;;;;;;4906149;29;20064;-48
2022/09/12 09:49:39;;;;;;;46.67;37.67;;;20.70;99.90;;;;;;4890312;29;20928;-55
2022/09/12 09:52:07;;;;;;;44.90;38.53;;;21.00;99.90;;;;;;4906223;29;20056;-53
2022/09/12 09:55:01;;;;;;;48.22;38.45;;;21.20;99.90;;;;;;4906567;29;20702;-54
2022/09/12 09:57:40;;;;;;;38.65;32.65;;;21.40;99.90;;;;;;4906233;29;20048;-50
2022/09/12 10:00:30;;;;;;;34.22;30.35;;;21.50;99.90;;;;;;4941389;28;20062;-50
2022/09/12 10:03:25;;;;;;;36.85;29.73;;;21.50;99.90;;;;;;4965935;28;20090;-55
2022/09/12 10:06:06;;;;;;;36.42;31.73;;;21.50;99.90;;;;;;5018367;28;20641;-52
2022/09/12 10:08:35;;;;;;;36.45;31.92;;;21.30;99.90;;;;;;5045126;28;20056;-49
2022/09/12 10:11:25;;;;;;;41.00;33.45;;;21.30;99.90;;;;;;5044896;28;20044;-51
2022/09/12 10:13:56;;;;;;;40.27;35.10;;;21.50;99.90;;;;;;5043862;28;20057;-52
2022/09/12 10:16:46;;;;;;;36.97;31.38;;;21.50;99.90;;;;;;5044487;28;20167;-50
2022/09/12 10:19:23;;;;;;;34.00;30.40;;;21.60;99.90;;;;;;5042965;28;20059;-52
2022/09/12 10:21:59;;;;;;;34.45;28.45;;;21.60;99.90;;;;;;5044753;28;20055;-52
2022/09/12 10:24:31;;;;;;;34.92;30.50;;;21.70;99.90;;;;;;5045029;28;20044;-53
2022/09/12 10:27:14;;;;;;;35.80;31.17;;;21.80;99.90;;;;;;5045005;28;20080;-51
2022/09/12 10:29:44;;;;;;;;;;;22.00;99.90;;;;;;5044611;28;20127;-50
2022/09/12 10:32:17;;;;;;;36.00;32.03;;;21.90;99.90;;;;;;5044130;28;19920;-49
2022/09/12 10:34:53;;;;;;;38.78;33.03;;;21.90;99.90;;;;;;5044072;28;20055;-53
2022/09/12 10:37:27;;;;;;;39.45;34.47;;;21.90;99.90;;;;;;5044555;28;20049;-53
2022/09/12 10:39:55;;;;;;;36.08;31.58;;;22.00;99.90;;;;;;5043659;28;20053;-52
2022/09/12 10:42:52;;;;;;;32.70;29.02;;;22.10;99.90;;;;;;5044551;28;20044;-52
2022/09/12 10:45:38;;;;;;;28.30;25.20;;;22.00;99.90;;;;;;5044143;28;20127;-50
2022/09/12 10:48:30;;;;;;;30.65;27.38;;;22.10;99.90;;;;;;5043868;28;20107;-53
2022/09/12 10:50:57;;;;;;;31.37;27.67;;;21.90;99.90;;;;;;5043524;28;20134;-50
2022/09/12 10:53:30;;;;;;;33.22;29.48;;;22.00;99.90;;;;;;5026025;28;20206;-54
2022/09/12 10:56:29;;;;;;;30.83;27.05;;;22.20;99.90;;;;;;5043964;28;20053;-53
2022/09/12 10:59:10;;;;;;;31.35;27.23;;;22.20;99.90;;;;;;4945262;28;20198;-53
2022/09/12 11:01:45;;;;;;;34.38;30.27;;;22.30;99.90;;;;;;4945690;28;20063;-55
2022/09/12 11:04:19;;;;;;;33.38;27.38;;;22.30;99.90;;;;;;4930576;28;20054;-55
2022/09/12 11:07:10;;;;;;;32.90;28.05;;;22.20;99.90;;;;;;4961444;28;20058;-54
2022/09/12 11:09:56;;;;;;;29.05;24.98;;;22.20;99.90;;;;;;4962086;28;20492;-53
2022/09/12 11:12:47;;;;;;;25.10;21.77;;;22.40;99.90;;;;;;4961445;28;20919;-55
2022/09/12 11:15:35;;;;;;;25.48;21.33;;;22.50;99.90;;;;;;4962783;28;20478;-54
2022/09/12 11:18:03;;;;;;;23.52;20.63;;;22.50;99.90;;;;;;4959135;28;20136;-53
2022/09/12 11:20:41;;;;;;;24.90;19.98;;;22.50;99.90;;;;;;4962041;28;20147;-54
2022/09/12 11:23:31;;;;;;;24.63;21.50;;;22.40;99.90;;;;;;4962562;28;20060;-54
2022/09/12 11:26:41;;;;;;;23.50;21.02;;;22.30;99.90;;;;;;4962958;28;20057;-53
2022/09/12 11:29:09;;;;;;;27.75;22.30;;;22.50;99.90;;;;;;4955642;28;20074;-55
2022/09/12 11:32:03;;;;;;;24.25;20.70;;;22.70;99.90;;;;;;4961732;28;20618;-56
2022/09/12 11:34:35;;;;;;;;;;;22.90;99.90;;;;;;5001249;28;20060;-55
2022/09/12 11:37:26;;;;;;;22.67;20.25;;;23.00;99.90;;;;;;5044501;28;19932;-55
2022/09/12 11:39:55;;;;;;;17.42;15.63;;;23.10;99.90;;;;;;5043918;28;20144;-54
2022/09/12 11:42:29;;;;;;;17.20;15.43;;;23.30;99.90;;;;;;5044060;28;20059;-54
2022/09/12 11:45:18;;;;;;;15.80;14.25;;;23.40;99.90;;;;;;5043588;28;20118;-54
2022/09/12 11:48:12;;;;;;;16.95;15.20;;;23.60;99.90;;;;;;5043451;28;20045;-56
2022/09/12 11:50:37;;;;;;;20.52;18.17;;;23.50;99.90;;;;;;5042743;28;20349;-55
2022/09/12 11:53:15;;;;;;;18.77;16.35;;;23.50;99.90;;;;;;5024823;28;20598;-55
2022/09/12 11:55:58;;;;;;;15.70;14.07;;;23.40;99.90;;;;;;5025544;28;20132;-55
2022/09/12 11:58:28;;;;;;;16.55;14.63;;;23.50;99.90;;;;;;5042597;28;20053;-56
2022/09/12 12:01:23;;;;;;;16.25;14.52;;;23.50;99.90;;;;;;5009486;28;20415;-55
2022/09/12 12:03:51;;;;;;;16.67;15.07;;;23.40;99.90;;;;;;5038700;28;20057;-57
2022/09/12 12:06:30;;;;;;;16.15;14.48;;;23.50;99.90;;;;;;5024661;28;20048;-55
2022/09/12 12:08:56;;;;;;;18.02;14.98;;;23.40;99.90;;;;;;5042559;28;20623;-54
2022/09/12 12:11:41;;;;;;;12.68;11.38;;;23.30;99.90;;;;;;5046660;28;20606;-57
2022/09/12 12:14:31;;;;;;;13.57;12.15;;;23.30;99.90;;;;;;5049682;28;20068;-55
2022/09/12 12:16:57;;;;;;;14.75;13.27;;;23.40;99.90;;;;;;5050107;28;20525;-55
2022/09/12 12:19:36;;;;;;;14.98;13.55;;;23.50;99.90;;;;;;5051862;28;20514;-54
2022/09/12 12:22:23;;;;;;;16.63;12.85;;;23.50;99.90;;;;;;5048775;28;20420;-57
2022/09/12 12:25:00;;;;;;;13.45;11.93;;;23.70;99.90;;;;;;5048519;28;20052;-57
2022/09/12 12:27:53;;;;;;;13.90;12.40;;;23.70;99.90;;;;;;5048390;28;20053;-55
2022/09/12 12:30:28;;;;;;;14.75;12.88;;;23.70;99.90;;;;;;5050834;28;20502;-54
2022/09/12 12:33:20;;;;;;;17.30;14.15;;;23.60;99.90;;;;;;5046052;28;20055;-56
2022/09/12 12:35:58;;;;;;;17.02;14.63;;;23.60;99.90;;;;;;4979421;28;20054;-55
2022/09/12 12:38:32;;;;;;;14.55;12.98;;;23.50;99.90;;;;;;4979839;28;20061;-56
2022/09/12 12:41:16;;;;;;;15.80;14.00;;;23.60;99.90;;;;;;4979667;28;20062;-56
2022/09/12 12:43:44;;;;;;;16.02;14.43;;;23.70;99.90;;;;;;4958847;28;20821;-57
2022/09/12 12:46:13;;;;;;;17.85;15.95;;;23.80;99.90;;;;;;4980565;28;20104;-55
2022/09/12 12:49:03;;;;;;;17.40;15.52;;;23.90;99.90;;;;;;4979911;28;20783;-57
2022/09/12 12:51:29;;;;;;;17.23;15.63;;;23.70;99.90;;;;;;4979623;28;20126;-57
2022/09/12 12:53:57;;;;;;;18.05;14.77;;;23.70;99.90;;;;;;4979326;28;20059;-58
2022/09/12 12:56:43;;;;;;;16.75;15.02;;;23.60;99.90;;;;;;4980415;28;20061;-56
2022/09/12 12:59:20;;;;;;;18.00;14.27;;;23.50;99.90;;;;;;4980104;28;20058;-56
2022/09/12 13:01:51;;;;;;;16.13;14.05;;;23.60;99.90;;;;;;4971185;28;20066;-57
2022/09/12 13:04:20;;;;;;;15.90;13.38;;;23.70;99.90;;;;;;4980640;28;20640;-57